sensor_id;sensor_type;location;lat;lon;timestamp;P1;durP1;ratioP1;P2;durP2;ratioP2
37459;SDS011;23318;50.966;5.284;2024-02-28T00:00:27;81.93;;;34.53;;
37459;SDS011;23318;50.966;5.284;2024-02-28T00:02:53;82.82;;;34.70;;
37459;SDS011;23318;50.966;5.284;2024-02-28T00:05:18;84.07;;;34.40;;
37459;SDS011;23318;50.966;5.284;2024-02-28T00:07:44;87.90;;;36.63;;
37459;SDS011;23318;50.966;5.284;2024-02-28T00:10:11;85.07;;;34.80;;
37459;SDS011;23318;50.966;5.284;2024-02-28T00:12:36;81.40;;;34.40;;
37459;SDS011;23318;50.966;5.284;2024-02-28T00:15:04;74.60;;;32.53;;
37459;SDS011;23318;50.966;5.284;2024-02-28T00:17:30;79.63;;;33.15;;
37459;SDS011;23318;50.966;5.284;2024-02-28T00:19:56;79.50;;;34.63;;
37459;SDS011;23318;50.966;5.284;2024-02-28T00:22:21;88.45;;;39.20;;
37459;SDS011;23318;50.966;5.284;2024-02-28T00:24:47;86.45;;;35.42;;
37459;SDS011;23318;50.966;5.284;2024-02-28T00:27:13;87.35;;;36.38;;
37459;SDS011;23318;50.966;5.284;2024-02-28T00:29:39;100.68;;;38.47;;
37459;SDS011;23318;50.966;5.284;2024-02-28T00:32:04;97.97;;;40.60;;
37459;SDS011;23318;50.966;5.284;2024-02-28T00:34:30;140.80;;;44.78;;
37459;SDS011;23318;50.966;5.284;2024-02-28T00:36:56;93.65;;;38.15;;
37459;SDS011;23318;50.966;5.284;2024-02-28T00:39:22;97.30;;;39.78;;
37459;SDS011;23318;50.966;5.284;2024-02-28T00:41:48;96.47;;;38.33;;
37459;SDS011;23318;50.966;5.284;2024-02-28T00:44:13;90.72;;;35.40;;
37459;SDS011;23318;50.966;5.284;2024-02-28T00:46:39;90.53;;;36.63;;
37459;SDS011;23318;50.966;5.284;2024-02-28T00:49:05;86.43;;;35.40;;
37459;SDS011;23318;50.966;5.284;2024-02-28T00:51:30;97.22;;;37.72;;
37459;SDS011;23318;50.966;5.284;2024-02-28T00:53:56;94.38;;;37.80;;
37459;SDS011;23318;50.966;5.284;2024-02-28T00:56:22;103.20;;;40.22;;
37459;SDS011;23318;50.966;5.284;2024-02-28T00:58:49;128.18;;;44.60;;
37459;SDS011;23318;50.966;5.284;2024-02-28T01:01:15;116.13;;;44.50;;
37459;SDS011;23318;50.966;5.284;2024-02-28T01:03:40;119.38;;;43.20;;
37459;SDS011;23318;50.966;5.284;2024-02-28T01:06:06;138.85;;;46.90;;
37459;SDS011;23318;50.966;5.284;2024-02-28T01:08:32;123.78;;;44.33;;
37459;SDS011;23318;50.966;5.284;2024-02-28T01:10:57;109.20;;;41.33;;
37459;SDS011;23318;50.966;5.284;2024-02-28T01:13:24;108.32;;;39.42;;
37459;SDS011;23318;50.966;5.284;2024-02-28T01:15:49;111.82;;;42.63;;
37459;SDS011;23318;50.966;5.284;2024-02-28T01:18:15;103.15;;;40.97;;
37459;SDS011;23318;50.966;5.284;2024-02-28T01:20:41;108.75;;;40.95;;
37459;SDS011;23318;50.966;5.284;2024-02-28T01:23:06;120.05;;;43.42;;
37459;SDS011;23318;50.966;5.284;2024-02-28T01:25:32;140.07;;;41.15;;
37459;SDS011;23318;50.966;5.284;2024-02-28T01:27:58;123.93;;;43.22;;
37459;SDS011;23318;50.966;5.284;2024-02-28T01:30:24;115.03;;;43.80;;
37459;SDS011;23318;50.966;5.284;2024-02-28T01:32:49;105.05;;;41.17;;
37459;SDS011;23318;50.966;5.284;2024-02-28T01:35:15;116.13;;;41.75;;
37459;SDS011;23318;50.966;5.284;2024-02-28T01:37:41;136.90;;;44.25;;
37459;SDS011;23318;50.966;5.284;2024-02-28T01:40:06;139.93;;;44.42;;
37459;SDS011;23318;50.966;5.284;2024-02-28T01:42:33;143.23;;;40.15;;
37459;SDS011;23318;50.966;5.284;2024-02-28T01:44:58;144.70;;;44.35;;
37459;SDS011;23318;50.966;5.284;2024-02-28T01:47:24;182.32;;;42.58;;
37459;SDS011;23318;50.966;5.284;2024-02-28T01:49:49;119.57;;;39.03;;
37459;SDS011;23318;50.966;5.284;2024-02-28T01:52:16;216.85;;;47.10;;
37459;SDS011;23318;50.966;5.284;2024-02-28T01:54:42;137.48;;;44.30;;
37459;SDS011;23318;50.966;5.284;2024-02-28T01:57:09;137.27;;;46.45;;
37459;SDS011;23318;50.966;5.284;2024-02-28T01:59:35;150.07;;;45.25;;
37459;SDS011;23318;50.966;5.284;2024-02-28T02:02:02;126.80;;;42.38;;
37459;SDS011;23318;50.966;5.284;2024-02-28T02:04:28;125.00;;;44.35;;
37459;SDS011;23318;50.966;5.284;2024-02-28T02:06:54;118.38;;;43.20;;
37459;SDS011;23318;50.966;5.284;2024-02-28T02:09:23;104.18;;;41.03;;
37459;SDS011;23318;50.966;5.284;2024-02-28T02:11:50;334.13;;;49.55;;
37459;SDS011;23318;50.966;5.284;2024-02-28T02:14:16;281.77;;;46.67;;
37459;SDS011;23318;50.966;5.284;2024-02-28T02:16:41;208.32;;;45.92;;
37459;SDS011;23318;50.966;5.284;2024-02-28T02:19:08;202.77;;;44.13;;
37459;SDS011;23318;50.966;5.284;2024-02-28T02:21:36;207.27;;;44.70;;
37459;SDS011;23318;50.966;5.284;2024-02-28T02:24:06;341.60;;;50.55;;
37459;SDS011;23318;50.966;5.284;2024-02-28T02:26:32;274.15;;;47.88;;
37459;SDS011;23318;50.966;5.284;2024-02-28T02:28:57;217.93;;;48.03;;
37459;SDS011;23318;50.966;5.284;2024-02-28T02:31:23;257.25;;;48.15;;
37459;SDS011;23318;50.966;5.284;2024-02-28T02:33:49;247.45;;;46.78;;
37459;SDS011;23318;50.966;5.284;2024-02-28T02:36:15;263.58;;;45.78;;
37459;SDS011;23318;50.966;5.284;2024-02-28T02:38:40;173.80;;;44.85;;
37459;SDS011;23318;50.966;5.284;2024-02-28T02:41:06;292.63;;;48.60;;
37459;SDS011;23318;50.966;5.284;2024-02-28T02:43:31;239.45;;;50.20;;
37459;SDS011;23318;50.966;5.284;2024-02-28T02:45:57;304.50;;;51.35;;
37459;SDS011;23318;50.966;5.284;2024-02-28T02:48:23;169.57;;;43.95;;
37459;SDS011;23318;50.966;5.284;2024-02-28T02:50:48;224.55;;;47.05;;
37459;SDS011;23318;50.966;5.284;2024-02-28T02:53:14;191.27;;;43.70;;
37459;SDS011;23318;50.966;5.284;2024-02-28T02:55:39;223.82;;;47.88;;
37459;SDS011;23318;50.966;5.284;2024-02-28T02:58:05;138.63;;;43.20;;
37459;SDS011;23318;50.966;5.284;2024-02-28T03:00:31;215.13;;;46.45;;
37459;SDS011;23318;50.966;5.284;2024-02-28T03:02:56;181.75;;;44.70;;
37459;SDS011;23318;50.966;5.284;2024-02-28T03:05:22;174.07;;;45.72;;
37459;SDS011;23318;50.966;5.284;2024-02-28T03:07:48;272.73;;;47.13;;
37459;SDS011;23318;50.966;5.284;2024-02-28T03:10:13;188.32;;;48.13;;
37459;SDS011;23318;50.966;5.284;2024-02-28T03:12:39;230.32;;;45.60;;
37459;SDS011;23318;50.966;5.284;2024-02-28T03:15:06;217.95;;;46.78;;
37459;SDS011;23318;50.966;5.284;2024-02-28T03:17:32;164.95;;;46.30;;
37459;SDS011;23318;50.966;5.284;2024-02-28T03:19:58;236.35;;;46.40;;
37459;SDS011;23318;50.966;5.284;2024-02-28T03:22:24;182.98;;;46.00;;
37459;SDS011;23318;50.966;5.284;2024-02-28T03:24:49;220.70;;;47.30;;
37459;SDS011;23318;50.966;5.284;2024-02-28T03:27:15;160.18;;;45.65;;
37459;SDS011;23318;50.966;5.284;2024-02-28T03:29:41;166.18;;;45.33;;
37459;SDS011;23318;50.966;5.284;2024-02-28T03:32:06;285.65;;;47.38;;
37459;SDS011;23318;50.966;5.284;2024-02-28T03:34:33;275.70;;;48.60;;
37459;SDS011;23318;50.966;5.284;2024-02-28T03:36:59;181.95;;;43.80;;
37459;SDS011;23318;50.966;5.284;2024-02-28T03:39:24;181.38;;;46.05;;
37459;SDS011;23318;50.966;5.284;2024-02-28T03:41:50;263.83;;;51.15;;
37459;SDS011;23318;50.966;5.284;2024-02-28T03:44:15;186.75;;;49.22;;
37459;SDS011;23318;50.966;5.284;2024-02-28T03:46:41;165.13;;;47.47;;
37459;SDS011;23318;50.966;5.284;2024-02-28T03:49:07;167.48;;;46.47;;
37459;SDS011;23318;50.966;5.284;2024-02-28T03:51:38;141.23;;;45.17;;
37459;SDS011;23318;50.966;5.284;2024-02-28T03:54:05;159.70;;;43.53;;
37459;SDS011;23318;50.966;5.284;2024-02-28T03:56:31;133.85;;;44.35;;
37459;SDS011;23318;50.966;5.284;2024-02-28T03:58:56;141.10;;;43.80;;
37459;SDS011;23318;50.966;5.284;2024-02-28T04:01:22;125.80;;;43.60;;
37459;SDS011;23318;50.966;5.284;2024-02-28T04:03:48;105.35;;;40.25;;
37459;SDS011;23318;50.966;5.284;2024-02-28T04:06:13;114.32;;;41.53;;
37459;SDS011;23318;50.966;5.284;2024-02-28T04:08:40;105.30;;;39.78;;
37459;SDS011;23318;50.966;5.284;2024-02-28T04:11:06;107.60;;;39.80;;
37459;SDS011;23318;50.966;5.284;2024-02-28T04:13:32;110.88;;;42.22;;
37459;SDS011;23318;50.966;5.284;2024-02-28T04:15:58;108.72;;;40.92;;
37459;SDS011;23318;50.966;5.284;2024-02-28T04:18:23;111.00;;;41.42;;
37459;SDS011;23318;50.966;5.284;2024-02-28T04:20:49;107.40;;;39.08;;
37459;SDS011;23318;50.966;5.284;2024-02-28T04:23:15;109.75;;;41.17;;
37459;SDS011;23318;50.966;5.284;2024-02-28T04:25:42;105.20;;;42.00;;
37459;SDS011;23318;50.966;5.284;2024-02-28T04:28:07;101.25;;;39.10;;
37459;SDS011;23318;50.966;5.284;2024-02-28T04:30:36;108.75;;;41.05;;
37459;SDS011;23318;50.966;5.284;2024-02-28T04:33:02;99.55;;;38.15;;
37459;SDS011;23318;50.966;5.284;2024-02-28T04:35:28;102.15;;;41.92;;
37459;SDS011;23318;50.966;5.284;2024-02-28T04:37:53;101.90;;;41.95;;
37459;SDS011;23318;50.966;5.284;2024-02-28T04:40:19;103.35;;;41.30;;
37459;SDS011;23318;50.966;5.284;2024-02-28T04:42:44;103.22;;;39.67;;
37459;SDS011;23318;50.966;5.284;2024-02-28T04:45:10;99.18;;;38.42;;
37459;SDS011;23318;50.966;5.284;2024-02-28T04:47:36;100.93;;;38.42;;
37459;SDS011;23318;50.966;5.284;2024-02-28T04:50:03;110.10;;;40.28;;
37459;SDS011;23318;50.966;5.284;2024-02-28T04:52:31;102.32;;;39.47;;
37459;SDS011;23318;50.966;5.284;2024-02-28T04:54:57;101.57;;;38.60;;
37459;SDS011;23318;50.966;5.284;2024-02-28T04:57:22;111.95;;;41.53;;
37459;SDS011;23318;50.966;5.284;2024-02-28T04:59:48;105.57;;;38.92;;
37459;SDS011;23318;50.966;5.284;2024-02-28T05:02:14;101.97;;;39.78;;
37459;SDS011;23318;50.966;5.284;2024-02-28T05:04:40;112.38;;;40.70;;
37459;SDS011;23318;50.966;5.284;2024-02-28T05:07:05;97.53;;;39.33;;
37459;SDS011;23318;50.966;5.284;2024-02-28T05:09:32;96.72;;;37.88;;
37459;SDS011;23318;50.966;5.284;2024-02-28T05:11:58;99.38;;;37.88;;
37459;SDS011;23318;50.966;5.284;2024-02-28T05:14:24;89.97;;;36.67;;
37459;SDS011;23318;50.966;5.284;2024-02-28T05:16:50;93.60;;;36.63;;
37459;SDS011;23318;50.966;5.284;2024-02-28T05:19:16;98.38;;;37.25;;
37459;SDS011;23318;50.966;5.284;2024-02-28T05:21:44;90.18;;;36.15;;
37459;SDS011;23318;50.966;5.284;2024-02-28T05:24:10;107.10;;;38.72;;
37459;SDS011;23318;50.966;5.284;2024-02-28T05:26:37;99.40;;;38.00;;
37459;SDS011;23318;50.966;5.284;2024-02-28T05:29:03;98.00;;;38.65;;
37459;SDS011;23318;50.966;5.284;2024-02-28T05:31:29;90.25;;;36.70;;
37459;SDS011;23318;50.966;5.284;2024-02-28T05:33:59;81.43;;;34.80;;
37459;SDS011;23318;50.966;5.284;2024-02-28T05:36:27;86.60;;;35.97;;
37459;SDS011;23318;50.966;5.284;2024-02-28T05:38:54;79.15;;;35.35;;
37459;SDS011;23318;50.966;5.284;2024-02-28T05:41:21;78.65;;;33.83;;
37459;SDS011;23318;50.966;5.284;2024-02-28T05:43:46;76.63;;;32.20;;
37459;SDS011;23318;50.966;5.284;2024-02-28T05:46:13;77.82;;;33.03;;
37459;SDS011;23318;50.966;5.284;2024-02-28T05:48:43;73.45;;;33.85;;
37459;SDS011;23318;50.966;5.284;2024-02-28T05:51:10;80.43;;;32.70;;
37459;SDS011;23318;50.966;5.284;2024-02-28T05:53:36;78.07;;;34.30;;
37459;SDS011;23318;50.966;5.284;2024-02-28T05:56:03;78.13;;;31.27;;
37459;SDS011;23318;50.966;5.284;2024-02-28T05:58:29;82.40;;;33.75;;
37459;SDS011;23318;50.966;5.284;2024-02-28T06:00:55;78.43;;;31.02;;
37459;SDS011;23318;50.966;5.284;2024-02-28T06:03:21;78.30;;;32.22;;
37459;SDS011;23318;50.966;5.284;2024-02-28T06:05:47;85.55;;;31.70;;
37459;SDS011;23318;50.966;5.284;2024-02-28T06:08:13;73.60;;;31.73;;
37459;SDS011;23318;50.966;5.284;2024-02-28T06:10:39;83.25;;;32.05;;
37459;SDS011;23318;50.966;5.284;2024-02-28T06:13:07;74.85;;;31.25;;
37459;SDS011;23318;50.966;5.284;2024-02-28T06:15:33;78.82;;;32.53;;
37459;SDS011;23318;50.966;5.284;2024-02-28T06:17:58;76.05;;;32.53;;
37459;SDS011;23318;50.966;5.284;2024-02-28T06:20:25;76.82;;;32.75;;
37459;SDS011;23318;50.966;5.284;2024-02-28T06:22:51;75.40;;;32.30;;
37459;SDS011;23318;50.966;5.284;2024-02-28T06:25:17;75.10;;;31.75;;
37459;SDS011;23318;50.966;5.284;2024-02-28T06:27:44;73.47;;;31.67;;
37459;SDS011;23318;50.966;5.284;2024-02-28T06:30:11;71.43;;;31.88;;
37459;SDS011;23318;50.966;5.284;2024-02-28T06:32:40;77.55;;;32.35;;
37459;SDS011;23318;50.966;5.284;2024-02-28T06:35:06;68.22;;;30.52;;
37459;SDS011;23318;50.966;5.284;2024-02-28T06:37:33;74.72;;;31.58;;
37459;SDS011;23318;50.966;5.284;2024-02-28T06:39:59;78.72;;;32.72;;
37459;SDS011;23318;50.966;5.284;2024-02-28T06:42:24;73.75;;;31.17;;
37459;SDS011;23318;50.966;5.284;2024-02-28T06:44:50;78.57;;;32.00;;
37459;SDS011;23318;50.966;5.284;2024-02-28T06:47:16;70.45;;;30.42;;
37459;SDS011;23318;50.966;5.284;2024-02-28T06:49:43;79.78;;;32.42;;
37459;SDS011;23318;50.966;5.284;2024-02-28T06:52:09;83.47;;;34.92;;
37459;SDS011;23318;50.966;5.284;2024-02-28T06:54:34;76.00;;;32.30;;
37459;SDS011;23318;50.966;5.284;2024-02-28T06:57:00;82.45;;;34.85;;
37459;SDS011;23318;50.966;5.284;2024-02-28T06:59:27;81.13;;;34.03;;
37459;SDS011;23318;50.966;5.284;2024-02-28T07:01:53;85.43;;;34.15;;
37459;SDS011;23318;50.966;5.284;2024-02-28T07:04:18;88.28;;;35.58;;
37459;SDS011;23318;50.966;5.284;2024-02-28T07:06:44;91.90;;;35.78;;
37459;SDS011;23318;50.966;5.284;2024-02-28T07:09:10;80.70;;;33.38;;
37459;SDS011;23318;50.966;5.284;2024-02-28T07:11:37;79.05;;;33.95;;
37459;SDS011;23318;50.966;5.284;2024-02-28T07:14:03;91.50;;;34.67;;
37459;SDS011;23318;50.966;5.284;2024-02-28T07:16:29;83.47;;;34.03;;
37459;SDS011;23318;50.966;5.284;2024-02-28T07:18:55;80.82;;;32.00;;
37459;SDS011;23318;50.966;5.284;2024-02-28T07:21:21;83.35;;;31.85;;
37459;SDS011;23318;50.966;5.284;2024-02-28T07:23:46;82.22;;;33.00;;
37459;SDS011;23318;50.966;5.284;2024-02-28T07:26:15;81.35;;;32.67;;
37459;SDS011;23318;50.966;5.284;2024-02-28T07:28:41;90.80;;;34.10;;
37459;SDS011;23318;50.966;5.284;2024-02-28T07:31:14;83.20;;;33.50;;
37459;SDS011;23318;50.966;5.284;2024-02-28T07:33:43;77.18;;;31.95;;
37459;SDS011;23318;50.966;5.284;2024-02-28T07:36:09;81.72;;;33.28;;
37459;SDS011;23318;50.966;5.284;2024-02-28T07:38:35;93.95;;;35.97;;
37459;SDS011;23318;50.966;5.284;2024-02-28T07:41:01;80.72;;;31.27;;
37459;SDS011;23318;50.966;5.284;2024-02-28T07:43:27;82.32;;;33.17;;
37459;SDS011;23318;50.966;5.284;2024-02-28T07:45:53;86.05;;;34.80;;
37459;SDS011;23318;50.966;5.284;2024-02-28T07:48:19;82.85;;;33.47;;
37459;SDS011;23318;50.966;5.284;2024-02-28T07:50:45;83.78;;;34.17;;
37459;SDS011;23318;50.966;5.284;2024-02-28T07:53:11;80.32;;;32.90;;
37459;SDS011;23318;50.966;5.284;2024-02-28T07:55:40;84.15;;;32.65;;
37459;SDS011;23318;50.966;5.284;2024-02-28T07:58:06;81.97;;;30.10;;
37459;SDS011;23318;50.966;5.284;2024-02-28T08:00:32;82.40;;;31.42;;
37459;SDS011;23318;50.966;5.284;2024-02-28T08:03:00;75.45;;;29.88;;
37459;SDS011;23318;50.966;5.284;2024-02-28T08:05:26;74.05;;;28.77;;
37459;SDS011;23318;50.966;5.284;2024-02-28T08:07:52;69.32;;;27.92;;
37459;SDS011;23318;50.966;5.284;2024-02-28T08:10:17;73.38;;;28.70;;
37459;SDS011;23318;50.966;5.284;2024-02-28T08:12:43;77.00;;;26.75;;
37459;SDS011;23318;50.966;5.284;2024-02-28T08:15:09;74.20;;;28.17;;
37459;SDS011;23318;50.966;5.284;2024-02-28T08:17:35;71.30;;;25.95;;
37459;SDS011;23318;50.966;5.284;2024-02-28T08:20:02;80.07;;;25.88;;
37459;SDS011;23318;50.966;5.284;2024-02-28T08:22:30;72.13;;;23.75;;
37459;SDS011;23318;50.966;5.284;2024-02-28T08:24:56;73.38;;;24.42;;
37459;SDS011;23318;50.966;5.284;2024-02-28T08:27:21;69.95;;;24.05;;
37459;SDS011;23318;50.966;5.284;2024-02-28T08:29:48;74.75;;;23.45;;
37459;SDS011;23318;50.966;5.284;2024-02-28T08:32:17;69.78;;;24.58;;
37459;SDS011;23318;50.966;5.284;2024-02-28T08:34:44;71.30;;;25.15;;
37459;SDS011;23318;50.966;5.284;2024-02-28T08:37:14;66.85;;;22.98;;
37459;SDS011;23318;50.966;5.284;2024-02-28T08:39:40;72.80;;;25.17;;
37459;SDS011;23318;50.966;5.284;2024-02-28T08:42:05;65.30;;;21.63;;
37459;SDS011;23318;50.966;5.284;2024-02-28T08:44:31;62.75;;;22.70;;
37459;SDS011;23318;50.966;5.284;2024-02-28T08:46:57;66.30;;;21.02;;
37459;SDS011;23318;50.966;5.284;2024-02-28T08:49:22;65.90;;;20.55;;
37459;SDS011;23318;50.966;5.284;2024-02-28T08:51:48;64.10;;;20.42;;
37459;SDS011;23318;50.966;5.284;2024-02-28T08:54:13;63.13;;;20.30;;
37459;SDS011;23318;50.966;5.284;2024-02-28T08:56:39;62.28;;;19.90;;
37459;SDS011;23318;50.966;5.284;2024-02-28T08:59:05;62.03;;;19.33;;
37459;SDS011;23318;50.966;5.284;2024-02-28T09:01:30;52.10;;;17.92;;
37459;SDS011;23318;50.966;5.284;2024-02-28T09:03:58;65.75;;;20.92;;
37459;SDS011;23318;50.966;5.284;2024-02-28T09:06:23;55.83;;;19.02;;
37459;SDS011;23318;50.966;5.284;2024-02-28T09:08:49;49.80;;;17.40;;
37459;SDS011;23318;50.966;5.284;2024-02-28T09:11:15;57.45;;;18.98;;
37459;SDS011;23318;50.966;5.284;2024-02-28T09:13:40;48.53;;;18.02;;
37459;SDS011;23318;50.966;5.284;2024-02-28T09:16:06;48.63;;;16.83;;
37459;SDS011;23318;50.966;5.284;2024-02-28T09:18:31;45.72;;;16.95;;
37459;SDS011;23318;50.966;5.284;2024-02-28T09:20:57;52.80;;;18.70;;
37459;SDS011;23318;50.966;5.284;2024-02-28T09:23:23;45.35;;;17.08;;
37459;SDS011;23318;50.966;5.284;2024-02-28T09:25:48;45.28;;;16.40;;
37459;SDS011;23318;50.966;5.284;2024-02-28T09:28:14;46.55;;;17.30;;
37459;SDS011;23318;50.966;5.284;2024-02-28T09:30:41;40.55;;;17.50;;
37459;SDS011;23318;50.966;5.284;2024-02-28T09:33:07;47.00;;;17.35;;
37459;SDS011;23318;50.966;5.284;2024-02-28T09:35:34;46.30;;;16.45;;
37459;SDS011;23318;50.966;5.284;2024-02-28T09:38:01;40.85;;;15.98;;
37459;SDS011;23318;50.966;5.284;2024-02-28T09:40:27;38.70;;;15.70;;
37459;SDS011;23318;50.966;5.284;2024-02-28T09:42:53;42.85;;;15.65;;
37459;SDS011;23318;50.966;5.284;2024-02-28T09:45:26;39.83;;;15.85;;
37459;SDS011;23318;50.966;5.284;2024-02-28T09:47:52;42.70;;;16.15;;
37459;SDS011;23318;50.966;5.284;2024-02-28T09:50:18;34.92;;;15.10;;
37459;SDS011;23318;50.966;5.284;2024-02-28T09:52:44;32.88;;;13.40;;
37459;SDS011;23318;50.966;5.284;2024-02-28T09:55:10;33.80;;;14.68;;
37459;SDS011;23318;50.966;5.284;2024-02-28T09:57:36;38.40;;;16.40;;
37459;SDS011;23318;50.966;5.284;2024-02-28T10:00:02;29.95;;;13.82;;
37459;SDS011;23318;50.966;5.284;2024-02-28T10:02:30;32.80;;;13.63;;
37459;SDS011;23318;50.966;5.284;2024-02-28T10:04:59;34.35;;;13.93;;
37459;SDS011;23318;50.966;5.284;2024-02-28T10:07:25;34.30;;;14.13;;
37459;SDS011;23318;50.966;5.284;2024-02-28T10:09:52;36.17;;;14.98;;
37459;SDS011;23318;50.966;5.284;2024-02-28T10:12:17;38.53;;;15.35;;
37459;SDS011;23318;50.966;5.284;2024-02-28T10:14:44;50.67;;;15.25;;
37459;SDS011;23318;50.966;5.284;2024-02-28T10:17:09;38.35;;;13.95;;
37459;SDS011;23318;50.966;5.284;2024-02-28T10:19:35;38.13;;;15.20;;
37459;SDS011;23318;50.966;5.284;2024-02-28T10:22:01;39.65;;;15.82;;
37459;SDS011;23318;50.966;5.284;2024-02-28T10:24:27;40.25;;;15.57;;
37459;SDS011;23318;50.966;5.284;2024-02-28T10:26:53;38.60;;;14.55;;
37459;SDS011;23318;50.966;5.284;2024-02-28T10:29:24;36.88;;;13.40;;
37459;SDS011;23318;50.966;5.284;2024-02-28T10:31:50;34.00;;;13.85;;
37459;SDS011;23318;50.966;5.284;2024-02-28T10:34:17;32.55;;;12.40;;
37459;SDS011;23318;50.966;5.284;2024-02-28T10:36:43;35.67;;;13.68;;
37459;SDS011;23318;50.966;5.284;2024-02-28T10:39:11;36.50;;;12.73;;
37459;SDS011;23318;50.966;5.284;2024-02-28T10:41:40;32.30;;;13.10;;
37459;SDS011;23318;50.966;5.284;2024-02-28T10:44:06;39.05;;;14.13;;
37459;SDS011;23318;50.966;5.284;2024-02-28T10:46:33;35.92;;;12.10;;
37459;SDS011;23318;50.966;5.284;2024-02-28T10:48:59;28.33;;;12.63;;
37459;SDS011;23318;50.966;5.284;2024-02-28T10:51:25;33.88;;;13.80;;
37459;SDS011;23318;50.966;5.284;2024-02-28T10:54:07;30.92;;;11.65;;
37459;SDS011;23318;50.966;5.284;2024-02-28T10:56:36;28.60;;;12.88;;
37459;SDS011;23318;50.966;5.284;2024-02-28T10:59:06;28.10;;;11.88;;
37459;SDS011;23318;50.966;5.284;2024-02-28T11:01:36;30.80;;;12.68;;
37459;SDS011;23318;50.966;5.284;2024-02-28T11:04:04;25.92;;;11.35;;
37459;SDS011;23318;50.966;5.284;2024-02-28T11:06:30;36.60;;;11.93;;
37459;SDS011;23318;50.966;5.284;2024-02-28T11:08:58;27.83;;;12.00;;
37459;SDS011;23318;50.966;5.284;2024-02-28T11:11:25;26.60;;;11.02;;
37459;SDS011;23318;50.966;5.284;2024-02-28T11:13:56;32.63;;;12.23;;
37459;SDS011;23318;50.966;5.284;2024-02-28T11:18:54;25.25;;;12.00;;
37459;SDS011;23318;50.966;5.284;2024-02-28T11:21:24;30.85;;;12.82;;
37459;SDS011;23318;50.966;5.284;2024-02-28T11:23:57;27.77;;;11.07;;
37459;SDS011;23318;50.966;5.284;2024-02-28T11:26:23;26.48;;;11.10;;
37459;SDS011;23318;50.966;5.284;2024-02-28T11:28:50;21.42;;;10.77;;
37459;SDS011;23318;50.966;5.284;2024-02-28T11:31:16;24.48;;;10.32;;
37459;SDS011;23318;50.966;5.284;2024-02-28T11:33:43;32.65;;;11.88;;
37459;SDS011;23318;50.966;5.284;2024-02-28T11:36:11;19.95;;;9.95;;
37459;SDS011;23318;50.966;5.284;2024-02-28T11:38:38;23.83;;;11.05;;
37459;SDS011;23318;50.966;5.284;2024-02-28T11:41:04;22.00;;;10.07;;
37459;SDS011;23318;50.966;5.284;2024-02-28T11:43:33;24.48;;;10.02;;
37459;SDS011;23318;50.966;5.284;2024-02-28T11:46:00;20.83;;;8.93;;
37459;SDS011;23318;50.966;5.284;2024-02-28T11:48:26;21.30;;;9.52;;
37459;SDS011;23318;50.966;5.284;2024-02-28T11:50:54;21.70;;;10.55;;
37459;SDS011;23318;50.966;5.284;2024-02-28T11:53:24;25.42;;;9.30;;
37459;SDS011;23318;50.966;5.284;2024-02-28T11:55:51;18.10;;;8.48;;
37459;SDS011;23318;50.966;5.284;2024-02-28T11:58:17;18.30;;;7.88;;
37459;SDS011;23318;50.966;5.284;2024-02-28T12:00:50;17.80;;;8.85;;
37459;SDS011;23318;50.966;5.284;2024-02-28T12:03:22;19.73;;;8.18;;
37459;SDS011;23318;50.966;5.284;2024-02-28T12:05:48;26.60;;;9.40;;
37459;SDS011;23318;50.966;5.284;2024-02-28T12:08:15;17.15;;;7.20;;
37459;SDS011;23318;50.966;5.284;2024-02-28T12:10:44;20.77;;;9.25;;
37459;SDS011;23318;50.966;5.284;2024-02-28T12:13:10;20.70;;;9.00;;
37459;SDS011;23318;50.966;5.284;2024-02-28T12:15:38;21.83;;;8.32;;
37459;SDS011;23318;50.966;5.284;2024-02-28T12:18:09;16.98;;;8.82;;
37459;SDS011;23318;50.966;5.284;2024-02-28T12:20:36;18.13;;;8.48;;
37459;SDS011;23318;50.966;5.284;2024-02-28T12:23:04;21.35;;;8.43;;
37459;SDS011;23318;50.966;5.284;2024-02-28T12:25:30;20.00;;;8.80;;
37459;SDS011;23318;50.966;5.284;2024-02-28T12:27:56;18.05;;;8.00;;
37459;SDS011;23318;50.966;5.284;2024-02-28T12:30:22;19.48;;;8.38;;
37459;SDS011;23318;50.966;5.284;2024-02-28T12:32:48;27.25;;;9.10;;
37459;SDS011;23318;50.966;5.284;2024-02-28T12:35:13;20.80;;;8.48;;
37459;SDS011;23318;50.966;5.284;2024-02-28T12:37:39;18.52;;;7.18;;
37459;SDS011;23318;50.966;5.284;2024-02-28T12:40:05;16.23;;;7.28;;
37459;SDS011;23318;50.966;5.284;2024-02-28T12:42:31;23.40;;;7.70;;
37459;SDS011;23318;50.966;5.284;2024-02-28T12:44:57;17.98;;;6.75;;
37459;SDS011;23318;50.966;5.284;2024-02-28T12:47:23;16.52;;;6.75;;
37459;SDS011;23318;50.966;5.284;2024-02-28T12:49:48;15.02;;;6.85;;
37459;SDS011;23318;50.966;5.284;2024-02-28T12:52:14;13.60;;;5.75;;
37459;SDS011;23318;50.966;5.284;2024-02-28T12:54:39;14.32;;;5.15;;
37459;SDS011;23318;50.966;5.284;2024-02-28T12:57:05;9.93;;;4.85;;
37459;SDS011;23318;50.966;5.284;2024-02-28T12:59:32;8.90;;;4.43;;
37459;SDS011;23318;50.966;5.284;2024-02-28T13:01:58;11.10;;;5.88;;
37459;SDS011;23318;50.966;5.284;2024-02-28T13:04:24;8.18;;;4.13;;
37459;SDS011;23318;50.966;5.284;2024-02-28T13:06:51;9.32;;;4.28;;
37459;SDS011;23318;50.966;5.284;2024-02-28T13:09:18;9.63;;;3.60;;
37459;SDS011;23318;50.966;5.284;2024-02-28T13:11:43;10.45;;;4.95;;
37459;SDS011;23318;50.966;5.284;2024-02-28T13:14:09;8.75;;;3.92;;
37459;SDS011;23318;50.966;5.284;2024-02-28T13:16:35;9.50;;;3.88;;
37459;SDS011;23318;50.966;5.284;2024-02-28T13:19:01;8.55;;;4.22;;
37459;SDS011;23318;50.966;5.284;2024-02-28T13:21:27;8.77;;;3.40;;
37459;SDS011;23318;50.966;5.284;2024-02-28T13:23:53;9.57;;;3.10;;
37459;SDS011;23318;50.966;5.284;2024-02-28T13:26:19;8.10;;;4.00;;
37459;SDS011;23318;50.966;5.284;2024-02-28T13:28:45;5.93;;;2.75;;
37459;SDS011;23318;50.966;5.284;2024-02-28T13:31:11;7.10;;;3.30;;
37459;SDS011;23318;50.966;5.284;2024-02-28T13:33:38;9.38;;;3.08;;
37459;SDS011;23318;50.966;5.284;2024-02-28T13:36:06;5.72;;;2.53;;
37459;SDS011;23318;50.966;5.284;2024-02-28T13:38:32;3.30;;;1.90;;
37459;SDS011;23318;50.966;5.284;2024-02-28T13:40:58;4.50;;;1.98;;
37459;SDS011;23318;50.966;5.284;2024-02-28T13:43:24;4.75;;;2.47;;
37459;SDS011;23318;50.966;5.284;2024-02-28T13:45:50;5.95;;;2.08;;
37459;SDS011;23318;50.966;5.284;2024-02-28T13:48:22;5.18;;;2.63;;
37459;SDS011;23318;50.966;5.284;2024-02-28T13:50:52;8.27;;;3.83;;
37459;SDS011;23318;50.966;5.284;2024-02-28T13:53:18;5.70;;;2.90;;
37459;SDS011;23318;50.966;5.284;2024-02-28T13:55:44;8.50;;;4.15;;
37459;SDS011;23318;50.966;5.284;2024-02-28T13:58:10;6.00;;;2.97;;
37459;SDS011;23318;50.966;5.284;2024-02-28T14:00:37;6.05;;;2.38;;
37459;SDS011;23318;50.966;5.284;2024-02-28T14:03:03;5.55;;;2.47;;
37459;SDS011;23318;50.966;5.284;2024-02-28T14:05:31;4.68;;;1.92;;
37459;SDS011;23318;50.966;5.284;2024-02-28T14:07:57;3.10;;;1.80;;
37459;SDS011;23318;50.966;5.284;2024-02-28T14:10:23;3.42;;;2.00;;
37459;SDS011;23318;50.966;5.284;2024-02-28T14:12:49;3.38;;;1.75;;
37459;SDS011;23318;50.966;5.284;2024-02-28T14:15:17;4.47;;;1.70;;
37459;SDS011;23318;50.966;5.284;2024-02-28T14:17:47;2.05;;;1.60;;